sensor_id;sensor_type;location;lat;lon;timestamp;pressure;altitude;pressure_sealevel;temperature;humidity
37694;BME280;23531;50.122;8.644;2022-09-17T00:00:15;100089.78;;;12.53;65.62
37694;BME280;23531;50.122;8.644;2022-09-17T00:02:18;100094.59;;;12.39;66.34
37694;BME280;23531;50.122;8.644;2022-09-17T00:04:20;100088.03;;;12.47;66.34
37694;BME280;23531;50.122;8.644;2022-09-17T00:06:22;100092.56;;;12.34;66.40
37694;BME280;23531;50.122;8.644;2022-09-17T00:08:24;100099.56;;;12.24;66.48
37694;BME280;23531;50.122;8.644;2022-09-17T00:10:25;100103.13;;;12.36;66.49
37694;BME280;23531;50.122;8.644;2022-09-17T00:12:26;100104.56;;;12.20;67.32
37694;BME280;23531;50.122;8.644;2022-09-17T00:14:28;100113.03;;;12.24;67.37
37694;BME280;23531;50.122;8.644;2022-09-17T00:16:33;100115.13;;;12.22;66.68
37694;BME280;23531;50.122;8.644;2022-09-17T00:18:36;100123.00;;;12.23;67.21
37694;BME280;23531;50.122;8.644;2022-09-17T00:20:42;100119.63;;;12.28;66.68
37694;BME280;23531;50.122;8.644;2022-09-17T00:22:44;100123.88;;;12.35;66.67
37694;BME280;23531;50.122;8.644;2022-09-17T00:24:45;100123.66;;;12.37;66.53
37694;BME280;23531;50.122;8.644;2022-09-17T00:26:47;100121.53;;;12.39;66.85
37694;BME280;23531;50.122;8.644;2022-09-17T00:28:50;100118.25;;;12.37;66.56
37694;BME280;23531;50.122;8.644;2022-09-17T00:30:52;100120.50;;;12.40;67.23
37694;BME280;23531;50.122;8.644;2022-09-17T00:32:53;100117.81;;;12.40;66.68
37694;BME280;23531;50.122;8.644;2022-09-17T00:34:59;100111.94;;;12.43;67.09
37694;BME280;23531;50.122;8.644;2022-09-17T00:37:01;100119.44;;;12.41;66.96
37694;BME280;23531;50.122;8.644;2022-09-17T00:39:04;100120.50;;;12.40;66.55
37694;BME280;23531;50.122;8.644;2022-09-17T00:41:06;100109.72;;;12.40;66.89
37694;BME280;23531;50.122;8.644;2022-09-17T00:43:09;100120.34;;;12.35;67.24
37694;BME280;23531;50.122;8.644;2022-09-17T00:45:12;100132.56;;;12.19;67.02
37694;BME280;23531;50.122;8.644;2022-09-17T00:47:21;100128.25;;;12.18;67.40
37694;BME280;23531;50.122;8.644;2022-09-17T00:49:28;100122.31;;;12.28;66.83
37694;BME280;23531;50.122;8.644;2022-09-17T00:51:33;100112.72;;;12.32;67.48
37694;BME280;23531;50.122;8.644;2022-09-17T00:53:36;100115.88;;;12.29;66.44
37694;BME280;23531;50.122;8.644;2022-09-17T00:55:41;100113.25;;;12.22;67.27
37694;BME280;23531;50.122;8.644;2022-09-17T00:57:44;100117.16;;;12.26;67.29
37694;BME280;23531;50.122;8.644;2022-09-17T00:59:47;100117.19;;;12.38;66.95
37694;BME280;23531;50.122;8.644;2022-09-17T01:01:49;100120.22;;;12.30;67.10
37694;BME280;23531;50.122;8.644;2022-09-17T01:03:50;100120.53;;;12.22;67.40
37694;BME280;23531;50.122;8.644;2022-09-17T01:05:56;100120.22;;;12.30;66.93
37694;BME280;23531;50.122;8.644;2022-09-17T01:08:08;100119.34;;;12.18;67.19
37694;BME280;23531;50.122;8.644;2022-09-17T01:12:48;100121.22;;;12.17;67.05
37694;BME280;23531;50.122;8.644;2022-09-17T01:15:04;100109.75;;;12.22;67.48
37694;BME280;23531;50.122;8.644;2022-09-17T01:17:14;100115.78;;;12.06;67.75
37694;BME280;23531;50.122;8.644;2022-09-17T01:19:48;100115.00;;;12.17;68.29
37694;BME280;23531;50.122;8.644;2022-09-17T01:21:58;100117.88;;;12.33;66.96
37694;BME280;23531;50.122;8.644;2022-09-17T01:27:15;100119.06;;;12.38;67.48
37694;BME280;23531;50.122;8.644;2022-09-17T01:29:38;100133.97;;;12.40;66.63
37694;BME280;23531;50.122;8.644;2022-09-17T01:31:47;100123.75;;;12.42;67.16
37694;BME280;23531;50.122;8.644;2022-09-17T01:33:58;100129.84;;;12.38;67.75
37694;BME280;23531;50.122;8.644;2022-09-17T01:36:11;100127.94;;;12.26;67.60
37694;BME280;23531;50.122;8.644;2022-09-17T01:38:23;100129.94;;;12.31;67.24
37694;BME280;23531;50.122;8.644;2022-09-17T01:40:29;100138.03;;;12.31;67.67
37694;BME280;23531;50.122;8.644;2022-09-17T01:42:37;100129.94;;;12.31;68.42
37694;BME280;23531;50.122;8.644;2022-09-17T01:44:49;100135.31;;;12.31;68.13
37694;BME280;23531;50.122;8.644;2022-09-17T01:46:54;100134.50;;;12.30;68.10
37694;BME280;23531;50.122;8.644;2022-09-17T01:49:00;100129.75;;;12.44;67.41
37694;BME280;23531;50.122;8.644;2022-09-17T01:51:05;100138.16;;;12.36;67.96
37694;BME280;23531;50.122;8.644;2022-09-17T01:53:08;100139.59;;;12.39;67.05
37694;BME280;23531;50.122;8.644;2022-09-17T01:55:13;100141.47;;;12.38;67.51
37694;BME280;23531;50.122;8.644;2022-09-17T01:57:18;100137.34;;;12.35;67.93
37694;BME280;23531;50.122;8.644;2022-09-17T01:59:24;100137.50;;;12.41;67.86
37694;BME280;23531;50.122;8.644;2022-09-17T02:01:30;100140.09;;;12.47;67.56
37694;BME280;23531;50.122;8.644;2022-09-17T02:03:37;100140.53;;;12.44;67.67
37694;BME280;23531;50.122;8.644;2022-09-17T02:05:44;100139.16;;;12.53;67.33
37694;BME280;23531;50.122;8.644;2022-09-17T02:07:51;100130.72;;;12.50;67.57
37694;BME280;23531;50.122;8.644;2022-09-17T02:09:57;100134.03;;;12.52;67.91
37694;BME280;23531;50.122;8.644;2022-09-17T02:12:03;100136.56;;;12.47;67.23
37694;BME280;23531;50.122;8.644;2022-09-17T02:14:10;100133.84;;;12.35;67.48
37694;BME280;23531;50.122;8.644;2022-09-17T02:16:18;100130.75;;;12.31;68.02
37694;BME280;23531;50.122;8.644;2022-09-17T02:18:26;100139.38;;;12.40;67.99
37694;BME280;23531;50.122;8.644;2022-09-17T02:20:34;100141.91;;;12.35;67.75
37694;BME280;23531;50.122;8.644;2022-09-17T02:22:42;100141.03;;;12.41;67.67
37694;BME280;23531;50.122;8.644;2022-09-17T02:24:48;100142.63;;;12.42;67.40
37694;BME280;23531;50.122;8.644;2022-09-17T02:26:57;100137.78;;;12.32;68.55
37694;BME280;23531;50.122;8.644;2022-09-17T02:29:05;100143.28;;;12.26;68.48
37694;BME280;23531;50.122;8.644;2022-09-17T02:31:08;100146.31;;;12.18;69.25
37694;BME280;23531;50.122;8.644;2022-09-17T02:33:12;100139.28;;;12.17;68.81
37694;BME280;23531;50.122;8.644;2022-09-17T02:35:14;100135.66;;;12.23;68.73
37694;BME280;23531;50.122;8.644;2022-09-17T02:37:17;100133.94;;;12.28;68.63
37694;BME280;23531;50.122;8.644;2022-09-17T02:39:19;100127.56;;;12.23;68.55
37694;BME280;23531;50.122;8.644;2022-09-17T02:41:22;100128.38;;;12.23;68.77
37694;BME280;23531;50.122;8.644;2022-09-17T02:43:32;100130.63;;;12.26;68.66
37694;BME280;23531;50.122;8.644;2022-09-17T02:45:43;100136.84;;;12.27;68.47
37694;BME280;23531;50.122;8.644;2022-09-17T02:48:04;100144.78;;;12.22;68.32
37694;BME280;23531;50.122;8.644;2022-09-17T02:50:29;100130.72;;;12.20;68.27
37694;BME280;23531;50.122;8.644;2022-09-17T02:52:44;100132.13;;;12.22;68.37
37694;BME280;23531;50.122;8.644;2022-09-17T02:54:53;100134.75;;;12.29;67.99
37694;BME280;23531;50.122;8.644;2022-09-17T02:57:06;100134.22;;;12.39;68.10
37694;BME280;23531;50.122;8.644;2022-09-17T02:59:15;100128.03;;;12.50;68.16
37694;BME280;23531;50.122;8.644;2022-09-17T03:01:20;100122.63;;;12.50;68.38
37694;BME280;23531;50.122;8.644;2022-09-17T03:03:28;100129.09;;;12.49;68.59
37694;BME280;23531;50.122;8.644;2022-09-17T03:05:32;100130.72;;;12.50;67.89
37694;BME280;23531;50.122;8.644;2022-09-17T03:07:35;100128.09;;;12.43;68.37
37694;BME280;23531;50.122;8.644;2022-09-17T03:09:40;100132.78;;;12.36;68.45
37694;BME280;23531;50.122;8.644;2022-09-17T03:11:42;100133.72;;;12.30;68.57
37694;BME280;23531;50.122;8.644;2022-09-17T03:13:44;100125.06;;;12.40;68.24
37694;BME280;23531;50.122;8.644;2022-09-17T03:15:45;100129.63;;;12.39;68.71
37694;BME280;23531;50.122;8.644;2022-09-17T03:17:47;100134.81;;;12.41;68.40
37694;BME280;23531;50.122;8.644;2022-09-17T03:19:48;100134.22;;;12.39;69.22
37694;BME280;23531;50.122;8.644;2022-09-17T03:21:50;100127.38;;;12.36;69.08
37694;BME280;23531;50.122;8.644;2022-09-17T03:23:51;100128.94;;;12.44;69.31
37694;BME280;23531;50.122;8.644;2022-09-17T03:25:54;100127.75;;;12.40;70.01
37694;BME280;23531;50.122;8.644;2022-09-17T03:27:55;100127.06;;;12.44;69.50
37694;BME280;23531;50.122;8.644;2022-09-17T03:29:57;100133.66;;;12.48;69.74
37694;BME280;23531;50.122;8.644;2022-09-17T03:31:58;100132.59;;;12.49;69.99
37694;BME280;23531;50.122;8.644;2022-09-17T03:34:00;100122.06;;;12.59;70.21
37694;BME280;23531;50.122;8.644;2022-09-17T03:36:01;100131.56;;;12.50;69.63
37694;BME280;23531;50.122;8.644;2022-09-17T03:38:03;100129.75;;;12.44;70.61
37694;BME280;23531;50.122;8.644;2022-09-17T03:40:06;100132.59;;;12.49;70.81
37694;BME280;23531;50.122;8.644;2022-09-17T03:42:09;100133.50;;;12.43;71.20
37694;BME280;23531;50.122;8.644;2022-09-17T03:44:10;100144.75;;;12.40;70.92
37694;BME280;23531;50.122;8.644;2022-09-17T03:46:11;100139.00;;;12.36;70.97
37694;BME280;23531;50.122;8.644;2022-09-17T03:48:13;100154.34;;;12.36;70.99
37694;BME280;23531;50.122;8.644;2022-09-17T03:50:14;100143.56;;;12.36;71.74
37694;BME280;23531;50.122;8.644;2022-09-17T03:52:16;100146.38;;;12.29;71.66
37694;BME280;23531;50.122;8.644;2022-09-17T03:54:17;100143.13;;;12.39;72.02
37694;BME280;23531;50.122;8.644;2022-09-17T03:56:20;100149.41;;;12.33;71.88
37694;BME280;23531;50.122;8.644;2022-09-17T03:58:23;100160.78;;;12.35;71.69
37694;BME280;23531;50.122;8.644;2022-09-17T04:00:24;100150.94;;;12.29;71.82
37694;BME280;23531;50.122;8.644;2022-09-17T04:02:26;100153.06;;;12.39;71.15
37694;BME280;23531;50.122;8.644;2022-09-17T04:04:27;100160.19;;;12.33;71.56
37694;BME280;23531;50.122;8.644;2022-09-17T04:06:29;100157.28;;;12.34;72.34
37694;BME280;23531;50.122;8.644;2022-09-17T04:08:30;100158.53;;;12.32;71.96
37694;BME280;23531;50.122;8.644;2022-09-17T04:10:31;100159.97;;;12.34;72.67
37694;BME280;23531;50.122;8.644;2022-09-17T04:12:33;100156.91;;;12.31;73.10
37694;BME280;23531;50.122;8.644;2022-09-17T04:14:36;100157.72;;;12.31;72.46
37694;BME280;23531;50.122;8.644;2022-09-17T04:16:37;100159.59;;;12.31;72.84
37694;BME280;23531;50.122;8.644;2022-09-17T04:18:39;100147.91;;;12.37;73.15
37694;BME280;23531;50.122;8.644;2022-09-17T04:20:41;100158.53;;;12.32;73.27
37694;BME280;23531;50.122;8.644;2022-09-17T04:22:43;100162.81;;;12.21;73.06
37694;BME280;23531;50.122;8.644;2022-09-17T04:24:44;100168.59;;;12.25;73.34
37694;BME280;23531;50.122;8.644;2022-09-17T04:26:46;100170.97;;;12.33;73.39
37694;BME280;23531;50.122;8.644;2022-09-17T04:28:47;100172.66;;;12.16;73.66
37694;BME280;23531;50.122;8.644;2022-09-17T04:30:50;100179.63;;;12.05;73.69
37694;BME280;23531;50.122;8.644;2022-09-17T04:32:51;100170.63;;;12.11;73.99
37694;BME280;23531;50.122;8.644;2022-09-17T04:34:53;100186.13;;;12.16;73.75
37694;BME280;23531;50.122;8.644;2022-09-17T04:36:54;100185.00;;;12.23;73.24
37694;BME280;23531;50.122;8.644;2022-09-17T04:38:55;100183.88;;;12.13;73.82
37694;BME280;23531;50.122;8.644;2022-09-17T04:40:59;100193.63;;;12.14;74.03
37694;BME280;23531;50.122;8.644;2022-09-17T04:43:01;100185.81;;;12.24;73.97
37694;BME280;23531;50.122;8.644;2022-09-17T04:45:03;100188.53;;;12.24;73.46
37694;BME280;23531;50.122;8.644;2022-09-17T04:47:06;100189.44;;;12.18;73.74
37694;BME280;23531;50.122;8.644;2022-09-17T04:49:08;100196.59;;;12.24;74.54
37694;BME280;23531;50.122;8.644;2022-09-17T04:51:10;100184.56;;;12.26;74.68
37694;BME280;23531;50.122;8.644;2022-09-17T04:53:12;100184.50;;;12.15;74.55
37694;BME280;23531;50.122;8.644;2022-09-17T04:55:14;100183.84;;;12.31;74.32
37694;BME280;23531;50.122;8.644;2022-09-17T04:57:15;100194.63;;;12.31;73.81
37694;BME280;23531;50.122;8.644;2022-09-17T04:59:16;100199.06;;;12.25;73.99
37694;BME280;23531;50.122;8.644;2022-09-17T05:01:18;100194.72;;;12.24;74.00
37694;BME280;23531;50.122;8.644;2022-09-17T05:03:21;100199.75;;;12.21;73.84
37694;BME280;23531;50.122;8.644;2022-09-17T05:05:22;100207.16;;;12.25;73.51
37694;BME280;23531;50.122;8.644;2022-09-17T05:07:24;100203.41;;;12.26;73.62
37694;BME280;23531;50.122;8.644;2022-09-17T05:09:25;100201.56;;;12.27;73.47
37694;BME280;23531;50.122;8.644;2022-09-17T05:11:27;100193.59;;;12.32;73.64
37694;BME280;23531;50.122;8.644;2022-09-17T05:13:29;100196.00;;;12.22;73.39
37694;BME280;23531;50.122;8.644;2022-09-17T05:15:30;100196.22;;;12.20;73.41
37694;BME280;23531;50.122;8.644;2022-09-17T05:17:32;100191.09;;;12.19;73.69
37694;BME280;23531;50.122;8.644;2022-09-17T05:19:34;100189.06;;;12.14;73.18
37694;BME280;23531;50.122;8.644;2022-09-17T05:21:36;100190.31;;;12.12;73.65
37694;BME280;23531;50.122;8.644;2022-09-17T05:23:37;100193.78;;;12.19;73.64
37694;BME280;23531;50.122;8.644;2022-09-17T05:25:39;100203.78;;;12.12;73.44
37694;BME280;23531;50.122;8.644;2022-09-17T05:27:40;100200.06;;;12.13;73.62
37694;BME280;23531;50.122;8.644;2022-09-17T05:29:42;100196.00;;;12.22;74.09
37694;BME280;23531;50.122;8.644;2022-09-17T05:31:44;100200.56;;;12.21;74.22
37694;BME280;23531;50.122;8.644;2022-09-17T05:33:46;100198.63;;;12.28;74.31
37694;BME280;23531;50.122;8.644;2022-09-17T05:35:48;100201.88;;;12.19;73.79
37694;BME280;23531;50.122;8.644;2022-09-17T05:37:50;100211.06;;;12.11;73.59
37694;BME280;23531;50.122;8.644;2022-09-17T05:39:51;100205.16;;;12.03;74.40
37694;BME280;23531;50.122;8.644;2022-09-17T05:41:53;100210.63;;;11.96;74.27
37694;BME280;23531;50.122;8.644;2022-09-17T05:43:54;100212.78;;;12.06;74.51
37694;BME280;23531;50.122;8.644;2022-09-17T05:46:00;100216.38;;;12.18;73.95
37694;BME280;23531;50.122;8.644;2022-09-17T05:48:02;100223.66;;;12.17;74.11
37694;BME280;23531;50.122;8.644;2022-09-17T05:50:04;100225.13;;;12.13;74.71
37694;BME280;23531;50.122;8.644;2022-09-17T05:52:07;100230.91;;;12.17;73.98
37694;BME280;23531;50.122;8.644;2022-09-17T05:54:08;100233.59;;;12.17;74.05
37694;BME280;23531;50.122;8.644;2022-09-17T05:56:10;100235.38;;;12.23;75.04
37694;BME280;23531;50.122;8.644;2022-09-17T05:58:13;100235.84;;;12.20;74.76
37694;BME280;23531;50.122;8.644;2022-09-17T06:00:15;100229.56;;;12.26;75.08
37694;BME280;23531;50.122;8.644;2022-09-17T06:02:17;100219.66;;;12.20;74.90
37694;BME280;23531;50.122;8.644;2022-09-17T06:04:18;100220.47;;;12.20;74.85
37694;BME280;23531;50.122;8.644;2022-09-17T06:06:20;100218.47;;;12.16;74.60
37694;BME280;23531;50.122;8.644;2022-09-17T06:08:23;100214.53;;;12.18;75.31
37694;BME280;23531;50.122;8.644;2022-09-17T06:10:25;100222.34;;;12.20;74.88
37694;BME280;23531;50.122;8.644;2022-09-17T06:12:26;100225.00;;;12.26;75.25
37694;BME280;23531;50.122;8.644;2022-09-17T06:14:28;100218.56;;;12.27;75.17
37694;BME280;23531;50.122;8.644;2022-09-17T06:16:30;100222.06;;;12.28;74.80
37694;BME280;23531;50.122;8.644;2022-09-17T06:18:31;100228.22;;;12.17;75.33
37694;BME280;23531;50.122;8.644;2022-09-17T06:20:32;100226.56;;;12.16;74.87
37694;BME280;23531;50.122;8.644;2022-09-17T06:22:34;100227.53;;;12.21;74.83
37694;BME280;23531;50.122;8.644;2022-09-17T06:24:37;100224.00;;;12.21;74.80
37694;BME280;23531;50.122;8.644;2022-09-17T06:26:38;100236.94;;;12.30;74.86
37694;BME280;23531;50.122;8.644;2022-09-17T06:28:39;100236.72;;;12.32;74.44
37694;BME280;23531;50.122;8.644;2022-09-17T06:30:41;100230.22;;;12.40;74.02
37694;BME280;23531;50.122;8.644;2022-09-17T06:32:43;100228.63;;;12.32;74.49
37694;BME280;23531;50.122;8.644;2022-09-17T06:34:44;100234.78;;;12.39;74.42
37694;BME280;23531;50.122;8.644;2022-09-17T06:36:47;100238.81;;;12.48;74.13
37694;BME280;23531;50.122;8.644;2022-09-17T06:38:48;100247.50;;;12.50;74.25
37694;BME280;23531;50.122;8.644;2022-09-17T06:40:51;100243.63;;;12.46;73.73
37694;BME280;23531;50.122;8.644;2022-09-17T06:42:55;100238.88;;;12.42;73.86
37694;BME280;23531;50.122;8.644;2022-09-17T06:44:57;100243.47;;;12.41;74.24
37694;BME280;23531;50.122;8.644;2022-09-17T06:46:59;100240.47;;;12.49;73.47
37694;BME280;23531;50.122;8.644;2022-09-17T06:49:00;100236.94;;;12.49;73.45
37694;BME280;23531;50.122;8.644;2022-09-17T06:51:03;100235.44;;;12.53;73.63
37694;BME280;23531;50.122;8.644;2022-09-17T06:53:05;100234.16;;;12.55;73.40
37694;BME280;23531;50.122;8.644;2022-09-17T06:55:07;100245.41;;;12.52;72.82
37694;BME280;23531;50.122;8.644;2022-09-17T06:57:11;100241.19;;;12.56;72.40
37694;BME280;23531;50.122;8.644;2022-09-17T06:59:13;100243.66;;;12.58;72.53
37694;BME280;23531;50.122;8.644;2022-09-17T07:01:14;100242.84;;;12.57;72.55
37694;BME280;23531;50.122;8.644;2022-09-17T07:03:16;100244.50;;;12.58;71.99
37694;BME280;23531;50.122;8.644;2022-09-17T07:05:17;100250.63;;;12.65;72.59
37694;BME280;23531;50.122;8.644;2022-09-17T07:07:18;100251.50;;;12.78;71.91
37694;BME280;23531;50.122;8.644;2022-09-17T07:09:20;100263.03;;;12.85;71.38
37694;BME280;23531;50.122;8.644;2022-09-17T07:11:21;100253.41;;;12.89;71.53
37694;BME280;23531;50.122;8.644;2022-09-17T07:13:25;100249.31;;;12.86;71.02
37694;BME280;23531;50.122;8.644;2022-09-17T07:15:26;100246.69;;;12.80;71.11
37694;BME280;23531;50.122;8.644;2022-09-17T07:17:28;100252.09;;;12.80;70.65
37694;BME280;23531;50.122;8.644;2022-09-17T07:19:30;100250.13;;;12.87;70.83
37694;BME280;23531;50.122;8.644;2022-09-17T07:21:32;100253.19;;;12.90;71.18
37694;BME280;23531;50.122;8.644;2022-09-17T07:23:35;100257.75;;;12.90;71.01
37694;BME280;23531;50.122;8.644;2022-09-17T07:25:36;100252.03;;;12.86;70.53
37694;BME280;23531;50.122;8.644;2022-09-17T07:27:38;100258.03;;;13.00;70.73
37694;BME280;23531;50.122;8.644;2022-09-17T07:29:40;100251.31;;;13.21;70.41
37694;BME280;23531;50.122;8.644;2022-09-17T07:31:42;100255.78;;;13.27;70.46
37694;BME280;23531;50.122;8.644;2022-09-17T07:33:44;100259.34;;;13.39;69.97
37694;BME280;23531;50.122;8.644;2022-09-17T07:35:51;100254.31;;;13.42;69.65
37694;BME280;23531;50.122;8.644;2022-09-17T07:37:52;100254.41;;;13.48;69.75
37694;BME280;23531;50.122;8.644;2022-09-17T07:39:54;100256.66;;;13.51;69.28
37694;BME280;23531;50.122;8.644;2022-09-17T07:41:55;100260.06;;;13.46;69.21
37694;BME280;23531;50.122;8.644;2022-09-17T07:43:57;100254.19;;;13.37;69.10
37694;BME280;23531;50.122;8.644;2022-09-17T07:46:01;100257.34;;;13.46;68.46
37694;BME280;23531;50.122;8.644;2022-09-17T07:48:03;100259.72;;;13.66;68.14
37694;BME280;23531;50.122;8.644;2022-09-17T07:50:05;100246.31;;;14.06;68.25
37694;BME280;23531;50.122;8.644;2022-09-17T07:52:07;100254.88;;;14.14;68.04
37694;BME280;23531;50.122;8.644;2022-09-17T07:54:08;100255.13;;;14.13;67.18
37694;BME280;23531;50.122;8.644;2022-09-17T07:56:10;100249.63;;;14.08;66.65
37694;BME280;23531;50.122;8.644;2022-09-17T07:58:11;100262.19;;;14.02;65.73
37694;BME280;23531;50.122;8.644;2022-09-17T08:00:14;100264.78;;;13.97;65.18
37694;BME280;23531;50.122;8.644;2022-09-17T08:02:17;100260.91;;;14.05;65.04
37694;BME280;23531;50.122;8.644;2022-09-17T08:04:20;100259.59;;;14.07;64.91
37694;BME280;23531;50.122;8.644;2022-09-17T08:06:24;100267.50;;;14.09;64.44
37694;BME280;23531;50.122;8.644;2022-09-17T08:08:27;100265.47;;;14.04;64.03
37694;BME280;23531;50.122;8.644;2022-09-17T08:10:28;100263.84;;;14.03;63.98
37694;BME280;23531;50.122;8.644;2022-09-17T08:12:30;100271.72;;;14.05;63.81
37694;BME280;23531;50.122;8.644;2022-09-17T08:14:32;100270.19;;;13.86;63.87
37694;BME280;23531;50.122;8.644;2022-09-17T08:16:33;100271.94;;;13.80;64.12
37694;BME280;23531;50.122;8.644;2022-09-17T08:18:36;100268.91;;;13.88;64.08
37694;BME280;23531;50.122;8.644;2022-09-17T08:20:40;100270.06;;;13.92;64.43
37694;BME280;23531;50.122;8.644;2022-09-17T08:22:41;100278.31;;;13.86;64.90
37694;BME280;23531;50.122;8.644;2022-09-17T08:24:43;100278.19;;;13.80;65.06
37694;BME280;23531;50.122;8.644;2022-09-17T08:26:44;100271.47;;;13.71;65.29
37694;BME280;23531;50.122;8.644;2022-09-17T08:28:48;100275.25;;;13.70;65.00
37694;BME280;23531;50.122;8.644;2022-09-17T08:30:50;100277.84;;;13.65;64.72
37694;BME280;23531;50.122;8.644;2022-09-17T08:32:54;100280.16;;;13.62;64.93
37694;BME280;23531;50.122;8.644;2022-09-17T08:34:57;100276.28;;;13.69;64.37
37694;BME280;23531;50.122;8.644;2022-09-17T08:36:59;100278.63;;;13.66;64.08
37694;BME280;23531;50.122;8.644;2022-09-17T08:39:00;100280.28;;;13.67;63.71
37694;BME280;23531;50.122;8.644;2022-09-17T08:41:14;100274.53;;;13.75;63.60
37694;BME280;23531;50.122;8.644;2022-09-17T08:43:19;100274.66;;;13.80;62.97
37694;BME280;23531;50.122;8.644;2022-09-17T08:45:21;100272.06;;;13.85;62.53
37694;BME280;23531;50.122;8.644;2022-09-17T08:47:25;100268.56;;;13.96;62.33
37694;BME280;23531;50.122;8.644;2022-09-17T08:49:33;100265.13;;;14.01;61.97
37694;BME280;23531;50.122;8.644;2022-09-17T08:51:42;100267.00;;;14.00;61.97
37694;BME280;23531;50.122;8.644;2022-09-17T08:53:56;100264.66;;;14.04;61.92
37694;BME280;23531;50.122;8.644;2022-09-17T08:56:04;100264.88;;;14.02;61.71
37694;BME280;23531;50.122;8.644;2022-09-17T08:58:35;100264.19;;;13.95;61.09
37694;BME280;23531;50.122;8.644;2022-09-17T09:00:42;100268.56;;;13.96;61.17
37694;BME280;23531;50.122;8.644;2022-09-17T09:03:01;100264.66;;;13.92;61.11
37694;BME280;23531;50.122;8.644;2022-09-17T09:05:12;100267.38;;;13.92;60.84
37694;BME280;23531;50.122;8.644;2022-09-17T09:07:19;100270.88;;;13.93;60.06
37694;BME280;23531;50.122;8.644;2022-09-17T09:09:25;100270.78;;;13.99;60.00
37694;BME280;23531;50.122;8.644;2022-09-17T09:11:30;100279.34;;;14.08;59.91
37694;BME280;23531;50.122;8.644;2022-09-17T09:13:35;100269.97;;;14.10;59.83
37694;BME280;23531;50.122;8.644;2022-09-17T09:15:43;100267.34;;;14.15;59.99
37694;BME280;23531;50.122;8.644;2022-09-17T09:17:46;100276.75;;;14.25;59.85
37694;BME280;23531;50.122;8.644;2022-09-17T09:19:49;100276.63;;;14.43;60.04
37694;BME280;23531;50.122;8.644;2022-09-17T09:22:01;100273.63;;;14.56;59.72
37694;BME280;23531;50.122;8.644;2022-09-17T09:24:12;100279.84;;;14.68;60.12
37694;BME280;23531;50.122;8.644;2022-09-17T09:26:19;100282.22;;;14.65;59.46
37694;BME280;23531;50.122;8.644;2022-09-17T09:30:54;100273.00;;;14.77;59.26
37694;BME280;23531;50.122;8.644;2022-09-17T09:33:04;100278.50;;;14.82;58.88
37694;BME280;23531;50.122;8.644;2022-09-17T09:35:16;100278.94;;;14.91;58.23
37694;BME280;23531;50.122;8.644;2022-09-17T09:37:23;100278.66;;;15.04;58.09
37694;BME280;23531;50.122;8.644;2022-09-17T09:39:28;100283.34;;;15.09;57.31
37694;BME280;23531;50.122;8.644;2022-09-17T09:41:39;100275.13;;;15.04;56.74
37694;BME280;23531;50.122;8.644;2022-09-17T09:43:45;100285.13;;;15.03;56.75
37694;BME280;23531;50.122;8.644;2022-09-17T09:46:00;100283.81;;;15.06;56.70
37694;BME280;23531;50.122;8.644;2022-09-17T09:48:12;100282.41;;;15.03;57.01
37694;BME280;23531;50.122;8.644;2022-09-17T09:50:30;100280.53;;;15.04;57.39
37694;BME280;23531;50.122;8.644;2022-09-17T09:52:45;100271.81;;;15.02;57.10
37694;BME280;23531;50.122;8.644;2022-09-17T09:55:02;100287.59;;;15.05;56.20
37694;BME280;23531;50.122;8.644;2022-09-17T09:57:11;100285.13;;;15.03;56.93
37694;BME280;23531;50.122;8.644;2022-09-17T09:59:13;100276.69;;;15.00;56.22
37694;BME280;23531;50.122;8.644;2022-09-17T10:01:16;100283.34;;;15.09;56.24
37694;BME280;23531;50.122;8.644;2022-09-17T10:03:21;100283.66;;;15.12;55.73
37694;BME280;23531;50.122;8.644;2022-09-17T10:05:23;100283.34;;;15.09;55.07
37694;BME280;23531;50.122;8.644;2022-09-17T10:07:24;100277.09;;;15.08;55.32
37694;BME280;23531;50.122;8.644;2022-09-17T10:09:26;100281.06;;;15.17;55.65
37694;BME280;23531;50.122;8.644;2022-09-17T10:11:31;100286.72;;;15.16;55.67
37694;BME280;23531;50.122;8.644;2022-09-17T10:13:34;100291.06;;;15.17;56.07
37694;BME280;23531;50.122;8.644;2022-09-17T10:15:37;100295.63;;;15.00;55.48
37694;BME280;23531;50.122;8.644;2022-09-17T10:17:39;100293.44;;;14.85;54.96
37694;BME280;23531;50.122;8.644;2022-09-17T10:19:41;100288.97;;;14.79;55.41
37694;BME280;23531;50.122;8.644;2022-09-17T10:21:42;100297.81;;;14.86;55.35
37694;BME280;23531;50.122;8.644;2022-09-17T10:23:44;100303.06;;;14.93;55.58
37694;BME280;23531;50.122;8.644;2022-09-17T10:25:47;100305.44;;;14.89;55.09
37694;BME280;23531;50.122;8.644;2022-09-17T10:27:50;100317.91;;;14.90;54.88
37694;BME280;23531;50.122;8.644;2022-09-17T10:30:00;100312.94;;;14.99;54.88
37694;BME280;23531;50.122;8.644;2022-09-17T10:32:02;100304.81;;;14.99;54.75
37694;BME280;23531;50.122;8.644;2022-09-17T10:34:18;100304.31;;;15.02;54.76
37694;BME280;23531;50.122;8.644;2022-09-17T10:36:38;100307.13;;;15.07;54.72
37694;BME280;23531;50.122;8.644;2022-09-17T10:38:41;100309.84;;;15.07;54.58
37694;BME280;23531;50.122;8.644;2022-09-17T10:40:42;100308.84;;;15.13;54.64
37694;BME280;23531;50.122;8.644;2022-09-17T10:42:44;100295.91;;;15.15;54.22
37694;BME280;23531;50.122;8.644;2022-09-17T10:44:51;100291.00;;;15.12;54.01
37694;BME280;23531;50.122;8.644;2022-09-17T10:46:53;100290.59;;;15.20;54.04
37694;BME280;23531;50.122;8.644;2022-09-17T10:49:06;100296.19;;;15.30;53.66
37694;BME280;23531;50.122;8.644;2022-09-17T10:51:09;100293.53;;;15.35;53.87
37694;BME280;23531;50.122;8.644;2022-09-17T10:53:14;100292.75;;;15.35;53.60
37694;BME280;23531;50.122;8.644;2022-09-17T10:55:21;100288.88;;;15.31;53.66
37694;BME280;23531;50.122;8.644;2022-09-17T10:57:37;100299.38;;;15.27;53.60